Latest Weather Observations for Warra

IDT60801

Issued at 4:05 am EDT Thursday 27 November 2014 (issued every 30 minutes, with the page automatically refreshed every 10 minutes)

About weather observations | Map of weather stations | Latest weather observations for TAS | Other Formats
Station Details ID: 097024 Name: WARRA Lat: -43.06 Lon: 146.70 Height: 495.0 m
Data from the previous 72 hours. | See also: Recent months at Warra
Date/Time
EDT
Temp
°C
App
Temp
°C
Dew
Point
Rel
Hum
%
Delta-T
°C
Wind Press
QNH
hPa
Press
MSL
hPa
Rain
since 9 am
mm
Dir
 
Spd
km/h
Gust
km/h
Spd
kts
Gust
kts
27/04:00am 5.9 2.9 1.8 75 1.7 SSW 7 11 4 6 - - 2.2
27/03:30am 5.2 2.2 1.7 78 1.4 N 7 13 4 7 - - 2.2
27/03:00am 5.8 2.7 1.5 74 1.8 NW 7 20 4 11 - - 2.2
27/02:30am 5.9 2.1 2.0 76 1.6 WNW 11 19 6 10 - - 2.2
27/02:00am 6.0 2.6 2.1 76 1.6 WNW 9 19 5 10 - - 2.2
27/01:30am 6.0 1.1 1.9 75 1.7 NW 17 28 9 15 - - 2.2
27/01:00am 6.2 -0.3 2.7 78 1.5 WSW 26 50 14 27 - - 2.2
27/12:30am 6.4 0.2 1.9 73 1.9 WSW 24 41 13 22 - - 2.2
27/12:00am 6.3 0.0 1.6 72 1.9 W 24 46 13 25 - - 2.2
 
Date/Time
EDT
Temp
°C
App
Temp
°C
Dew
Point
Rel
Hum
%
Delta-T
°C
Wind Press
QNH
hPa
Press
MSL
hPa
Rain
since 9 am
mm
Dir
 
Spd
km/h
Gust
km/h
Spd
kts
Gust
kts
26/11:30pm 6.5 -0.4 2.6 76 1.7 W 28 46 15 25 - - 2.2
26/11:00pm 6.5 1.3 3.5 81 1.3 W 20 35 11 19 - - 2.2
26/10:30pm 6.4 1.7 3.0 79 1.5 W 17 30 9 16 - - 2.2
26/10:00pm 6.5 0.8 2.9 78 1.5 W 22 43 12 23 - - 2.2
26/09:30pm 6.7 0.6 3.0 77 1.6 W 24 43 13 23 - - 2.2
26/09:00pm 6.7 -0.2 2.4 74 1.8 W 28 46 15 25 - - 2.2
26/08:32pm 6.9 0.0 2.8 75 1.8 W 28 54 15 29 - - 2.2
26/08:30pm 7.0 0.5 2.7 74 1.8 W 26 46 14 25 - - 2.2
26/08:00pm 6.6 0.1 2.7 76 1.7 W 26 44 14 24 - - 2.2
26/07:34pm 6.7 -0.1 3.3 79 1.5 WSW 28 46 15 25 - - 2.2
26/07:30pm 6.7 0.3 3.3 79 1.5 WSW 26 46 14 25 - - 2.2
26/07:29pm 6.7 -0.1 3.3 79 1.5 WSW 28 46 15 25 - - 2.2
26/07:00pm 6.6 0.7 4.1 84 1.1 W 24 41 13 22 - - 2.2
26/06:30pm 7.0 2.1 5.0 87 0.9 WSW 20 43 11 23 - - 2.2
26/06:00pm 7.8 3.5 5.3 84 1.1 W 17 30 9 16 - - 2.0
26/05:30pm 7.7 3.3 6.5 92 0.6 W 19 32 10 17 - - 2.0
26/05:00pm 7.8 3.3 6.1 89 0.8 W 19 30 10 16 - - 2.0
26/04:30pm 8.2 2.6 5.3 82 1.3 WSW 24 41 13 22 - - 1.8
26/04:00pm 8.5 3.0 6.1 85 1.1 W 24 37 13 20 - - 1.8
26/03:30pm 9.8 4.7 6.2 78 1.7 W 22 43 12 23 - - 1.8
26/03:20pm 9.4 3.1 5.8 78 1.7 W 28 54 15 29 - - 1.8
26/03:00pm 9.9 4.4 5.7 75 2.0 WSW 24 43 13 23 - - 1.8
26/02:30pm 10.1 4.9 5.7 74 2.1 W 22 43 12 23 - - 1.8
26/02:00pm 10.2 5.1 5.8 74 2.1 W 22 43 12 23 - - 1.8
26/01:30pm 9.3 4.7 6.4 82 1.4 W 20 39 11 21 - - 1.8
26/01:00pm 8.4 2.9 5.9 84 1.2 WSW 24 37 13 20 - - 1.8
26/12:30pm 8.4 2.6 6.2 86 1.0 WSW 26 44 14 24 - - 1.4
26/12:00pm 9.4 3.5 5.9 79 1.7 WSW 26 48 14 26 - - 1.2
26/11:30am 8.9 5.1 7.5 91 0.7 WSW 17 32 9 17 - - 1.2
26/11:00am 7.5 2.7 5.8 89 0.8 WSW 20 39 11 21 - - 1.0
26/10:30am 9.8 5.2 5.6 75 2.0 W 19 37 10 20 - - 0.0
26/10:00am 7.9 3.9 6.5 91 0.7 W 17 39 9 21 - - 0.0
26/09:30am 7.3 2.4 4.3 81 1.3 W 19 35 10 19 - - 0.0
26/09:00am 8.6 1.5 3.8 72 2.1 W 30 52 16 28 - - 11.4
26/08:30am 8.2 1.5 3.9 74 1.9 W 28 57 15 31 - - 11.4
26/08:00am 8.4 0.8 3.1 69 2.3 W 32 57 17 31 - - 11.4
26/07:30am 7.3 -0.3 3.0 74 1.9 W 32 63 17 34 - - 11.4
26/07:00am 6.5 -1.3 2.9 78 1.5 W 33 56 18 30 - - 11.4
26/06:30am 5.5 -2.0 3.5 87 0.9 W 32 57 17 31 - - 11.4
26/06:01am 5.8 -1.1 2.4 79 1.4 W 28 48 15 26 - - 11.4
26/06:00am 5.6 -0.9 2.6 81 1.3 W 26 48 14 26 - - 11.4
26/05:30am 5.5 -2.1 2.7 82 1.2 W 32 63 17 34 - - 11.4
26/05:00am 5.7 -1.8 3.2 84 1.1 W 32 56 17 30 - - 11.4
26/04:30am 5.6 -1.8 4.2 91 0.6 W 32 54 17 29 - - 11.4
26/04:01am 5.7 -0.6 5.7 100 0.0 W 28 46 15 25 - - 11.2
26/04:00am 5.8 -0.1 5.8 100 0.0 W 26 46 14 25 - - 11.2
26/03:30am 6.1 0.2 6.0 99 0.0 W 26 44 14 24 - - 10.8
26/03:00am 6.9 1.6 6.8 99 0.0 W 24 46 13 25 - - 10.4
26/02:30am 7.2 0.8 7.1 99 0.0 W 30 54 16 29 - - 10.0
26/02:00am 7.6 1.7 7.5 99 0.0 W 28 46 15 25 - - 9.8
26/01:34am 7.9 2.0 7.3 96 0.3 W 28 48 15 26 - - 9.4
26/01:30am 8.1 3.4 7.7 97 0.2 W 22 48 12 26 - - 8.8
26/01:00am 8.4 3.3 7.5 94 0.4 WNW 24 43 13 23 - - 7.0
26/12:30am 8.3 1.4 7.2 93 0.5 WNW 33 54 18 29 - - 6.6
26/12:05am 8.0 2.0 6.9 93 0.5 WNW 28 50 15 27 - - 6.0
26/12:00am 8.0 1.9 6.8 92 0.6 WNW 28 44 15 24 - - 6.0
 
Date/Time
EDT
Temp
°C
App
Temp
°C
Dew
Point
Rel
Hum
%
Delta-T
°C
Wind Press
QNH
hPa
Press
MSL
hPa
Rain
since 9 am
mm
Dir
 
Spd
km/h
Gust
km/h
Spd
kts
Gust
kts
25/11:32pm 7.9 1.8 6.4 90 0.7 NW 28 54 15 29 - - 5.6
25/11:30pm 7.9 2.1 6.4 90 0.7 NW 26 52 14 28 - - 5.6
25/11:00pm 7.9 1.3 5.9 87 0.9 WNW 30 48 16 26 - - 5.4
25/10:36pm 7.6 1.3 5.7 88 0.9 WNW 28 46 15 25 - - 5.2
25/10:30pm 7.7 1.8 5.7 87 0.9 WNW 26 50 14 27 - - 5.2
25/10:00pm 7.4 0.6 5.2 86 1.0 WNW 30 48 16 26 - - 5.2
25/09:30pm 7.4 1.0 5.0 85 1.1 WNW 28 48 15 26 - - 5.2
25/09:08pm 7.4 1.0 5.2 86 1.0 NW 28 54 15 29 - - 5.2
25/09:00pm 7.2 2.5 5.2 87 0.9 WNW 19 41 10 22 - - 5.2
25/08:35pm 7.4 0.9 4.5 82 1.3 WNW 28 50 15 27 - - 5.2
25/08:30pm 7.5 1.7 4.5 81 1.3 WNW 24 39 13 21 - - 5.2
25/08:00pm 7.2 2.0 3.8 79 1.5 WNW 20 37 11 20 - - 5.2
25/07:34pm 7.2 0.6 4.0 80 1.4 WNW 28 54 15 29 - - 5.2
25/07:30pm 7.2 0.9 4.0 80 1.4 WNW 26 54 14 29 - - 5.2
25/07:27pm 7.2 0.6 4.0 80 1.4 WNW 28 54 15 29 - - 5.2
25/07:00pm 7.4 2.2 3.8 78 1.6 W 20 43 11 23 - - 5.2
25/06:30pm 7.3 0.2 3.5 77 1.7 W 30 65 16 35 - - 5.2
25/06:25pm 7.4 0.7 3.5 76 1.7 W 28 65 15 35 - - 5.2
25/06:00pm 7.0 1.9 4.3 83 1.2 W 20 30 11 16 - - 5.2
25/05:30pm 6.8 1.4 4.5 85 1.0 W 22 50 12 27 - - 5.0
25/05:00pm 7.9 1.4 4.8 81 1.4 W 28 52 15 28 - - 4.8
25/04:42pm 7.7 1.3 5.0 83 1.2 W 28 59 15 32 - - 4.8
25/04:30pm 7.5 2.7 5.8 89 0.8 W 20 33 11 18 - - 4.8
25/04:00pm 6.9 1.0 5.7 92 0.6 W 26 46 14 25 - - 4.6
25/03:30pm 7.7 1.1 6.0 89 0.8 W 30 56 16 30 - - 4.0
25/03:00pm 7.9 1.8 6.8 93 0.5 W 28 72 15 39 - - 3.8
25/02:53pm 7.9 1.8 6.8 93 0.5 W 28 72 15 39 - - 3.8
25/02:41pm 8.1 2.1 7.0 93 0.5 W 28 50 15 27 - - 3.2
25/02:30pm 8.1 2.8 6.7 91 0.7 W 24 46 13 25 - - 2.8
25/02:00pm 8.2 2.1 6.7 90 0.7 W 28 50 15 27 - - 2.0
25/01:51pm 8.1 2.0 6.4 89 0.8 W 28 50 15 27 - - 1.6
25/01:30pm 9.6 4.1 6.0 78 1.7 W 24 46 13 25 - - 0.6
25/01:00pm 8.7 2.9 6.2 84 1.2 W 26 46 14 25 - - 0.6
25/12:30pm 10.2 4.3 5.6 73 2.2 W 26 50 14 27 - - 0.4
25/12:28pm 10.0 3.6 5.4 73 2.2 W 28 50 15 27 - - 0.4
25/12:00pm 9.0 3.4 5.6 79 1.6 W 24 46 13 25 - - 0.4
25/11:30am 9.0 3.9 6.1 82 1.4 W 22 46 12 25 - - 0.4
25/11:00am 9.5 3.2 5.5 76 1.9 W 28 50 15 27 - - 0.4
25/10:30am 9.8 4.2 5.4 74 2.1 W 24 44 13 24 - - 0.4
25/10:00am 7.9 1.2 5.5 85 1.1 W 30 59 16 32 - - 0.4
25/09:30am 8.0 0.7 5.5 84 1.2 W 33 59 18 32 - - 0.2
25/09:00am 7.3 1.0 5.6 89 0.8 W 28 54 15 29 - - 10.8
25/08:31am 7.5 1.3 6.0 90 0.7 W 28 48 15 26 - - 10.6
25/08:30am 7.4 1.5 5.9 90 0.7 W 26 48 14 26 - - 10.6
25/08:00am 6.9 0.1 4.9 87 0.9 W 30 50 16 27 - - 10.2
25/07:30am 6.8 -0.6 4.8 87 0.9 W 33 74 18 40 - - 10.0
25/07:00am 6.2 -1.1 4.5 89 0.8 W 32 57 17 31 - - 9.8
25/06:30am 7.0 -0.8 4.7 85 1.0 W 35 57 19 31 - - 9.2
25/06:00am 6.5 -0.3 5.3 92 0.5 W 30 59 16 32 - - 9.0
25/05:30am 6.7 -0.2 4.7 87 0.9 W 30 56 16 30 - - 7.8
25/05:02am 6.8 0.4 5.1 89 0.8 W 28 46 15 25 - - 7.8
25/05:00am 6.9 0.9 5.2 89 0.8 W 26 46 14 25 - - 7.8
25/04:30am 6.9 -0.3 5.2 89 0.8 W 32 54 17 29 - - 7.6
25/04:21am 6.9 0.6 5.5 91 0.6 W 28 69 15 37 - - 7.6
25/04:18am 6.9 1.7 5.5 91 0.6 W 22 69 12 37 - - 7.6
25/04:01am 6.9 0.5 5.4 90 0.7 W 28 48 15 26 - - 6.8
25/04:00am 6.9 0.9 5.4 90 0.7 W 26 48 14 26 - - 6.8
25/03:42am 6.8 0.4 5.0 88 0.8 W 28 54 15 29 - - 6.4
25/03:30am 7.1 1.8 4.9 86 1.0 WNW 22 44 12 24 - - 5.8
25/03:00am 7.7 0.7 4.1 78 1.6 W 30 65 16 35 - - 5.2
25/02:30am 7.6 0.7 4.6 81 1.4 W 30 50 16 27 - - 5.2
25/02:02am 7.5 1.0 4.8 83 1.2 W 28 59 15 32 - - 5.2
25/02:00am 7.5 1.4 4.6 82 1.3 W 26 59 14 32 - - 5.2
25/01:30am 7.0 -0.8 5.0 87 0.9 WNW 35 59 19 32 - - 5.2
25/01:00am 7.3 -0.6 4.4 82 1.3 WNW 35 61 19 33 - - 4.2
25/12:30am 7.3 0.3 3.9 79 1.5 WNW 30 52 16 28 - - 4.2
25/12:18am 7.5 0.0 3.7 77 1.7 WNW 32 72 17 39 - - 4.2
25/12:13am 7.2 0.5 3.8 79 1.5 WNW 28 50 15 27 - - 4.2
25/12:00am 7.0 1.5 4.0 81 1.3 WNW 22 41 12 22 - - 4.2
 
Date/Time
EDT
Temp
°C
App
Temp
°C
Dew
Point
Rel
Hum
%
Delta-T
°C
Wind Press
QNH
hPa
Press
MSL
hPa
Rain
since 9 am
mm
Dir
 
Spd
km/h
Gust
km/h
Spd
kts
Gust
kts
24/11:30pm 6.6 -0.1 3.9 83 1.2 WNW 28 52 15 28 - - 4.0
24/11:19pm 6.7 0.0 3.9 82 1.2 WNW 28 52 15 28 - - 4.0
24/11:00pm 7.0 1.9 4.1 82 1.3 WNW 20 43 11 23 - - 3.8
24/10:30pm 7.2 0.6 4.3 82 1.3 WNW 28 50 15 27 - - 3.8
24/10:28pm 7.2 0.7 4.7 84 1.1 W 28 50 15 27 - - 3.8
24/10:00pm 7.9 2.3 3.2 72 2.1 WNW 22 35 12 19 - - 3.4
24/09:30pm 7.8 3.8 3.1 72 2.1 WNW 13 24 7 13 - - 3.4
24/09:00pm 7.8 3.1 2.9 71 2.1 W 17 26 9 14 - - 3.4
24/08:30pm 7.7 2.7 4.8 82 1.3 WNW 20 37 11 20 - - 3.4
24/08:00pm 8.1 3.1 3.8 74 1.9 WNW 19 37 10 20 - - 3.4
24/07:30pm 9.0 4.0 3.6 69 2.4 WNW 19 41 10 22 - - 3.4
24/07:00pm 8.8 3.1 5.0 77 1.7 WNW 24 41 13 22 - - 3.4
24/06:57pm 8.9 2.5 5.1 77 1.8 WNW 28 46 15 25 - - 3.4
24/06:30pm 10.1 4.4 6.6 79 1.7 WNW 26 41 14 22 - - 3.4
24/06:00pm 10.9 5.7 7.2 78 1.8 WNW 24 46 13 25 - - 3.4
24/05:30pm 11.4 7.1 9.5 88 1.0 WNW 22 35 12 19 - - 3.4
24/05:00pm 11.5 8.5 10.6 94 0.5 NW 17 28 9 15 - - 3.0
24/04:30pm 12.3 9.9 11.4 94 0.5 NW 15 22 8 12 - - 3.0
24/04:00pm 13.2 11.9 12.4 95 0.4 NNW 11 20 6 11 - - 3.0
24/03:30pm 12.6 11.2 12.3 98 0.2 NW 11 19 6 10 - - 2.6
24/03:00pm 12.4 9.6 11.5 94 0.5 NW 17 28 9 15 - - 1.4
24/02:30pm 12.4 10.2 10.8 90 0.9 NW 13 22 7 12 - - 0.8
24/02:00pm 13.4 11.0 10.2 81 1.7 NNW 13 20 7 11 - - 0.8
24/01:30pm 14.8 12.9 10.6 76 2.3 NNW 11 20 6 11 - - 0.8
24/01:00pm 13.5 11.4 9.6 77 2.0 NNW 11 17 6 9 - - 0.8
24/12:30pm 13.5 10.8 10.5 82 1.6 NW 15 20 8 11 - - 0.8
24/12:00pm 12.6 10.9 11.2 91 0.8 NNW 11 17 6 9 - - 0.8
24/11:30am 11.3 9.4 9.2 87 1.1 N 9 13 5 7 - - 0.6
24/11:00am 13.1 12.1 8.8 75 2.2 ENE 4 9 2 5 - - 0.0
24/10:30am 12.9 10.7 6.3 64 3.2 NNW 7 17 4 9 - - 0.0
24/10:00am 14.1 10.6 5.5 56 4.2 N 13 24 7 13 - - 0.0
24/09:30am 13.5 9.7 5.9 60 3.7 NNW 15 24 8 13 - - 0.0
24/09:00am 12.7 8.7 5.1 60 3.6 N 15 30 8 16 - - 0.0
24/08:30am 12.0 7.2 4.7 61 3.4 NNW 19 26 10 14 - - 0.0
24/08:00am 12.7 8.8 5.4 61 3.5 NNW 15 24 8 13 - - 0.0
24/07:30am 12.1 9.4 5.7 65 3.1 NNW 9 13 5 7 - - 0.0
24/07:00am 8.8 6.3 4.8 76 1.8 WNW 7 11 4 6 - - 0.0
24/06:30am 8.3 6.0 4.7 78 1.6 W 6 9 3 5 - - 0.0
24/06:00am 8.3 5.3 4.3 76 1.8 WNW 9 13 5 7 - - 0.0
24/05:30am 7.5 4.8 3.7 77 1.7 NW 7 13 4 7 - - 0.0
24/05:00am 7.6 4.5 3.6 76 1.8 WNW 9 15 5 8 - - 0.0
24/04:30am 8.1 4.4 4.3 77 1.7 NW 13 20 7 11 - - 0.0

Other Formats:

Comma delimited format used in spreadsheet applications
http://www.bom.gov.au/fwo/IDT60801/IDT60801.95962.axf

JavaScript Object Notation format (JSON) in row-major order
http://www.bom.gov.au/fwo/IDT60801/IDT60801.95962.json